createdAt,value
2017-08-26T00:00:13.949Z,0
2017-08-26T00:00:54.334Z,0
2017-08-26T00:01:34.786Z,0
2017-08-26T00:02:15.210Z,0
2017-08-26T00:02:55.633Z,0
2017-08-26T00:03:36.047Z,0
2017-08-26T00:04:16.482Z,0
2017-08-26T00:04:56.849Z,0
2017-08-26T00:05:37.269Z,0
2017-08-26T00:06:17.633Z,0
2017-08-26T00:06:58.127Z,0
2017-08-26T00:07:38.515Z,0
2017-08-26T00:08:18.875Z,0
2017-08-26T00:08:59.293Z,0
2017-08-26T00:09:39.785Z,0
2017-08-26T00:10:20.193Z,0
2017-08-26T00:11:00.615Z,0
2017-08-26T00:11:40.984Z,0
2017-08-26T00:12:21.357Z,0
2017-08-26T00:13:01.786Z,0
2017-08-26T00:13:42.257Z,0
2017-08-26T00:14:22.690Z,0
2017-08-26T00:15:03.042Z,0
2017-08-26T00:15:43.476Z,0
2017-08-26T00:16:23.881Z,0
2017-08-26T00:17:04.273Z,0
2017-08-26T00:17:44.811Z,0
2017-08-26T00:18:25.183Z,0
2017-08-26T00:19:05.568Z,0
2017-08-26T00:19:45.971Z,0
2017-08-26T00:20:26.466Z,0
2017-08-26T00:21:06.830Z,0
2017-08-26T00:21:47.294Z,0
2017-08-26T00:22:27.628Z,0
2017-08-26T00:23:08.031Z,0
2017-08-26T00:23:48.573Z,0
2017-08-26T00:24:28.995Z,0
2017-08-26T00:25:09.395Z,0
2017-08-26T00:25:49.803Z,0
2017-08-26T00:26:30.193Z,0
2017-08-26T00:27:10.567Z,0
2017-08-26T00:27:50.961Z,0
2017-08-26T00:28:31.388Z,0
2017-08-26T00:29:11.827Z,0
2017-08-26T00:29:52.256Z,0
2017-08-26T00:30:32.623Z,0
2017-08-26T00:31:13.060Z,0
2017-08-26T00:31:53.442Z,0
2017-08-26T00:32:33.871Z,0
2017-08-26T00:33:14.325Z,0
2017-08-26T00:33:54.687Z,0
2017-08-26T00:34:35.185Z,0
2017-08-26T00:35:15.552Z,0
2017-08-26T00:35:55.942Z,0
2017-08-26T00:36:36.325Z,0
2017-08-26T00:37:16.821Z,0
2017-08-26T00:37:57.151Z,0
2017-08-26T00:38:37.581Z,0
2017-08-26T00:39:18.008Z,0
2017-08-26T00:39:58.374Z,0
2017-08-26T00:40:38.824Z,0
2017-08-26T00:41:19.271Z,0
2017-08-26T00:41:59.653Z,0
2017-08-26T00:42:40.111Z,0
2017-08-26T00:43:20.513Z,0
2017-08-26T00:44:00.908Z,0
2017-08-26T00:44:41.406Z,0
2017-08-26T00:45:21.947Z,0
2017-08-26T00:46:02.299Z,0
2017-08-26T00:46:42.708Z,0
2017-08-26T00:47:23.158Z,0
2017-08-26T00:48:06.335Z,0
2017-08-26T00:48:46.780Z,0
2017-08-26T00:49:27.123Z,0
2017-08-26T00:50:07.548Z,0
2017-08-26T00:50:48.019Z,0
2017-08-26T00:51:28.569Z,0
2017-08-26T00:52:09.009Z,0
2017-08-26T00:52:49.371Z,0
2017-08-26T00:53:29.907Z,0
2017-08-26T00:54:10.342Z,0
2017-08-26T00:54:50.725Z,0
2017-08-26T00:55:31.128Z,0
2017-08-26T00:56:11.582Z,0
2017-08-26T00:56:51.948Z,0
2017-08-26T00:57:32.394Z,0
2017-08-26T00:58:12.747Z,0
2017-08-26T00:58:53.191Z,0
2017-08-26T00:59:33.638Z,0
2017-08-26T01:00:14.047Z,0
2017-08-26T01:00:54.475Z,0
2017-08-26T01:01:34.856Z,0
2017-08-26T01:02:15.306Z,0
2017-08-26T01:02:55.662Z,0
2017-08-26T01:03:36.112Z,0
2017-08-26T01:04:16.471Z,0
2017-08-26T01:04:56.910Z,0
2017-08-26T01:05:37.366Z,0
2017-08-26T01:06:17.815Z,0
2017-08-26T01:06:58.154Z,0
2017-08-26T01:07:38.586Z,0
2017-08-26T01:08:19.002Z,0
2017-08-26T01:08:59.406Z,0
2017-08-26T01:09:39.894Z,0
2017-08-26T01:10:20.203Z,0
2017-08-26T01:11:00.640Z,0
2017-08-26T01:11:41.096Z,0
2017-08-26T01:12:21.475Z,0
2017-08-26T01:13:01.904Z,0
2017-08-26T01:13:42.318Z,0
2017-08-26T01:14:22.799Z,0
2017-08-26T01:15:03.245Z,0
2017-08-26T01:15:43.727Z,0
2017-08-26T01:16:24.128Z,0
2017-08-26T01:17:04.524Z,0
2017-08-26T01:17:45.008Z,0
2017-08-26T01:18:25.387Z,0
2017-08-26T01:19:05.769Z,0
2017-08-26T01:19:46.167Z,0
2017-08-26T01:20:26.617Z,0
2017-08-26T01:21:07.017Z,0
2017-08-26T01:21:47.464Z,0
2017-08-26T01:22:27.823Z,0
2017-08-26T01:23:08.345Z,0
2017-08-26T01:23:48.709Z,0
2017-08-26T01:24:29.138Z,0
2017-08-26T01:25:09.546Z,0
2017-08-26T01:25:50.045Z,0
2017-08-26T01:26:30.391Z,0
2017-08-26T01:27:10.844Z,0
2017-08-26T01:27:51.222Z,0
2017-08-26T01:28:31.650Z,0
2017-08-26T01:29:12.059Z,0
2017-08-26T01:29:52.473Z,0
2017-08-26T01:30:32.929Z,0
2017-08-26T01:31:13.284Z,0
2017-08-26T01:31:53.742Z,0
2017-08-26T01:32:34.166Z,0
2017-08-26T01:33:14.592Z,0
2017-08-26T01:33:55.003Z,0
2017-08-26T01:34:35.459Z,0
2017-08-26T01:35:15.882Z,0
2017-08-26T01:35:56.316Z,0
2017-08-26T01:36:36.790Z,0
2017-08-26T01:37:17.176Z,0
2017-08-26T01:37:57.592Z,0
2017-08-26T01:38:37.955Z,0
2017-08-26T01:39:18.350Z,0
2017-08-26T01:39:58.734Z,0
2017-08-26T01:40:39.130Z,0
2017-08-26T01:41:19.551Z,0
2017-08-26T01:42:00.009Z,0
2017-08-26T01:42:40.430Z,0
2017-08-26T01:43:20.811Z,0
2017-08-26T01:44:01.216Z,0
2017-08-26T01:44:41.618Z,0
2017-08-26T01:45:22.019Z,0
2017-08-26T01:46:02.445Z,0
2017-08-26T01:46:42.820Z,0
2017-08-26T01:47:23.253Z,0
2017-08-26T01:48:03.663Z,0
2017-08-26T01:48:44.098Z,0
2017-08-26T01:49:24.488Z,0
2017-08-26T01:50:05.095Z,0
2017-08-26T01:50:45.481Z,0
2017-08-26T01:51:25.891Z,0
2017-08-26T01:52:06.291Z,0
2017-08-26T01:52:46.717Z,0
2017-08-26T01:53:27.087Z,0
2017-08-26T01:54:07.476Z,0
2017-08-26T01:54:47.890Z,0
2017-08-26T01:55:28.283Z,0
2017-08-26T01:56:09.033Z,0
2017-08-26T01:56:49.482Z,0
2017-08-26T01:57:29.872Z,0
2017-08-26T01:58:10.312Z,0
2017-08-26T01:58:50.679Z,0
2017-08-26T01:59:31.056Z,0
2017-08-26T02:00:11.498Z,0
2017-08-26T02:00:51.852Z,0
2017-08-26T02:01:32.321Z,0
2017-08-26T02:02:12.731Z,0
2017-08-26T02:02:53.089Z,0
2017-08-26T02:03:33.460Z,0
2017-08-26T02:04:13.940Z,0
2017-08-26T02:04:54.350Z,0
2017-08-26T02:05:34.752Z,0
2017-08-26T02:06:15.145Z,0
2017-08-26T02:06:55.597Z,0
2017-08-26T02:07:36.041Z,0
2017-08-26T02:08:16.435Z,0
2017-08-26T02:08:56.876Z,0
2017-08-26T02:09:37.281Z,0
2017-08-26T02:10:17.680Z,0
2017-08-26T02:10:58.073Z,0
2017-08-26T02:11:38.463Z,0
2017-08-26T02:12:18.853Z,0
2017-08-26T02:12:59.311Z,0
2017-08-26T02:13:39.715Z,0
2017-08-26T02:14:20.153Z,0
2017-08-26T02:15:00.634Z,0
2017-08-26T02:15:40.964Z,0
2017-08-26T02:16:21.454Z,0
2017-08-26T02:17:01.814Z,0
2017-08-26T02:17:42.186Z,0
2017-08-26T02:18:22.815Z,0
2017-08-26T02:19:03.233Z,0
2017-08-26T02:19:43.580Z,0
2017-08-26T02:20:24.007Z,0
2017-08-26T02:21:04.345Z,0
2017-08-26T02:21:44.799Z,0
2017-08-26T02:22:25.226Z,0
2017-08-26T02:23:05.778Z,0
2017-08-26T02:23:46.114Z,0
2017-08-26T02:24:26.543Z,0
2017-08-26T02:25:06.921Z,0
2017-08-26T02:25:47.321Z,0
2017-08-26T02:26:27.727Z,0
2017-08-26T02:27:08.120Z,0
2017-08-26T02:27:48.619Z,0
2017-08-26T02:28:29.048Z,0
2017-08-26T02:29:09.475Z,0
2017-08-26T02:29:49.895Z,0
2017-08-26T02:30:30.368Z,0
2017-08-26T02:31:10.778Z,0
2017-08-26T02:31:51.237Z,0
2017-08-26T02:32:31.654Z,0
2017-08-26T02:33:12.079Z,0
2017-08-26T02:33:52.543Z,0
2017-08-26T02:34:32.938Z,0
2017-08-26T02:35:13.452Z,0
2017-08-26T02:35:53.888Z,0
2017-08-26T02:36:34.244Z,0
2017-08-26T02:37:14.870Z,0
2017-08-26T02:37:55.324Z,0
2017-08-26T02:38:35.769Z,0
2017-08-26T02:39:16.103Z,0
2017-08-26T02:39:56.462Z,0
2017-08-26T02:40:36.856Z,0
2017-08-26T02:41:17.267Z,0
2017-08-26T02:41:57.713Z,0
2017-08-26T02:42:38.153Z,0
2017-08-26T02:43:18.560Z,0
2017-08-26T02:43:58.969Z,0
2017-08-26T02:44:39.612Z,0
2017-08-26T02:45:20.074Z,0
2017-08-26T02:46:00.478Z,0
2017-08-26T02:46:40.846Z,0
2017-08-26T02:47:21.287Z,0
2017-08-26T02:48:01.759Z,0
2017-08-26T02:48:42.093Z,0
2017-08-26T02:49:22.541Z,0
2017-08-26T02:50:03.004Z,0
2017-08-26T02:50:43.451Z,0
2017-08-26T02:51:23.858Z,0
2017-08-26T02:52:04.310Z,0
2017-08-26T02:52:44.778Z,0
2017-08-26T02:53:25.228Z,0
2017-08-26T02:54:05.567Z,0
2017-08-26T02:54:46.025Z,0
2017-08-26T02:55:26.416Z,0
2017-08-26T02:56:06.860Z,0
2017-08-26T02:56:47.218Z,0
2017-08-26T02:57:27.652Z,0
2017-08-26T02:58:08.055Z,0
2017-08-26T02:58:48.507Z,0
2017-08-26T02:59:28.970Z,0
2017-08-26T03:00:09.403Z,0
2017-08-26T03:00:49.950Z,0
2017-08-26T03:01:30.607Z,0
2017-08-26T03:02:11.550Z,0
2017-08-26T03:02:51.755Z,0
2017-08-26T03:03:31.972Z,0
2017-08-26T03:04:12.607Z,0
2017-08-26T03:04:53.056Z,0
2017-08-26T03:05:33.573Z,0
2017-08-26T03:06:14.111Z,0
2017-08-26T03:06:55.093Z,0
2017-08-26T03:07:35.329Z,0
2017-08-26T03:08:15.708Z,0
2017-08-26T03:08:56.452Z,0
2017-08-26T03:17:19.333Z,0
2017-08-26T03:18:00.286Z,0
2017-08-26T03:18:45.628Z,0
2017-08-26T03:19:24.281Z,0
2017-08-26T03:20:05.713Z,0
2017-08-26T03:20:45.769Z,0
2017-08-26T03:21:27.940Z,0
2017-08-26T03:22:08.823Z,0
2017-08-26T03:22:52.062Z,0
2017-08-26T03:23:34.849Z,0
2017-08-26T03:24:16.939Z,0
2017-08-26T03:25:00.449Z,0
2017-08-26T03:25:39.474Z,0
2017-08-26T03:26:23.396Z,0
2017-08-26T03:27:06.537Z,0
2017-08-26T03:29:42.595Z,0
2017-08-26T03:30:22.994Z,0
2017-08-26T03:31:03.431Z,0
2017-08-26T03:31:43.781Z,0
2017-08-26T03:32:24.218Z,0
2017-08-26T03:33:04.605Z,0
2017-08-26T03:33:45.009Z,0
2017-08-26T03:34:25.384Z,0
2017-08-26T03:35:05.766Z,0
2017-08-26T03:35:46.311Z,0
2017-08-26T03:36:26.659Z,0
2017-08-26T03:37:07.097Z,0
2017-08-26T03:37:47.457Z,0
2017-08-26T03:38:29.587Z,0
2017-08-26T03:39:10.001Z,0
2017-08-26T03:39:50.390Z,0
2017-08-26T03:40:30.840Z,0
2017-08-26T03:41:11.291Z,0
2017-08-26T03:41:51.630Z,0
2017-08-26T03:42:32.071Z,0
2017-08-26T03:43:12.496Z,0
2017-08-26T03:43:52.914Z,0
2017-08-26T03:44:33.329Z,0
2017-08-26T03:45:13.733Z,0
2017-08-26T03:45:54.180Z,0
2017-08-26T03:46:34.501Z,0
2017-08-26T03:47:14.961Z,0
2017-08-26T03:47:55.303Z,0
2017-08-26T03:48:35.707Z,0
2017-08-26T03:51:07.359Z,0
2017-08-26T03:51:47.771Z,0
2017-08-26T03:52:28.250Z,0
2017-08-26T03:53:08.653Z,0
2017-08-26T03:53:48.987Z,0
2017-08-26T03:54:29.437Z,0
2017-08-26T03:55:09.887Z,0
2017-08-26T03:55:50.292Z,0
2017-08-26T03:56:30.714Z,0
2017-08-26T03:57:11.130Z,0
2017-08-26T03:57:51.597Z,0
2017-08-26T03:58:32.015Z,0
2017-08-26T03:59:12.459Z,0
2017-08-26T03:59:53.673Z,0
2017-08-26T04:00:34.505Z,0
2017-08-26T04:01:17.333Z,0
2017-08-26T04:01:57.480Z,0
2017-08-26T04:02:37.793Z,0
2017-08-26T04:03:22.389Z,0
2017-08-26T04:04:05.904Z,0
2017-08-26T04:04:48.213Z,0
2017-08-26T04:05:29.563Z,0
2017-08-26T04:06:10.577Z,0
2017-08-26T04:06:51.399Z,0
2017-08-26T04:07:31.859Z,0
2017-08-26T04:08:12.273Z,0
2017-08-26T04:08:52.694Z,0
2017-08-26T04:09:33.077Z,0
2017-08-26T04:10:13.497Z,0
2017-08-26T04:10:54.371Z,0
2017-08-26T04:11:34.952Z,0
2017-08-26T04:12:15.627Z,0
2017-08-26T04:12:55.977Z,0
2017-08-26T04:13:36.691Z,0
2017-08-26T04:14:18.317Z,0
2017-08-26T04:14:58.795Z,0
2017-08-26T04:15:40.075Z,0
2017-08-26T04:16:20.218Z,0
2017-08-26T04:17:00.614Z,0
2017-08-26T04:17:40.934Z,0
2017-08-26T04:18:21.456Z,0
2017-08-26T04:19:01.754Z,0
2017-08-26T04:19:42.218Z,0
2017-08-26T04:20:22.598Z,0
2017-08-26T04:21:03.104Z,0
2017-08-26T04:21:43.434Z,0
2017-08-26T04:22:23.871Z,0
2017-08-26T04:23:04.361Z,0
2017-08-26T04:23:44.719Z,0
2017-08-26T04:24:25.141Z,0
2017-08-26T04:25:05.572Z,0
2017-08-26T04:25:46.073Z,0
2017-08-26T04:26:26.383Z,0
2017-08-26T04:27:06.786Z,0
2017-08-26T04:27:47.554Z,0
2017-08-26T04:28:27.913Z,0
2017-08-26T04:29:08.478Z,0
2017-08-26T04:29:48.927Z,0
2017-08-26T04:30:29.226Z,0
2017-08-26T04:31:09.770Z,0
2017-08-26T04:31:50.117Z,0
2017-08-26T04:32:30.554Z,0
2017-08-26T04:33:11.074Z,0
2017-08-26T04:33:51.984Z,0
2017-08-26T04:34:33.315Z,0
2017-08-26T04:35:13.747Z,0
2017-08-26T04:35:54.380Z,0
2017-08-26T04:36:34.797Z,0
2017-08-26T04:37:15.137Z,0
2017-08-26T04:37:55.531Z,0
2017-08-26T04:38:35.937Z,0
2017-08-26T04:39:16.388Z,0
2017-08-26T04:39:56.902Z,0
2017-08-26T04:40:37.667Z,0
2017-08-26T04:41:18.103Z,0
2017-08-26T04:41:58.789Z,0
2017-08-26T04:42:39.714Z,0
2017-08-26T04:43:20.229Z,0
2017-08-26T04:44:01.178Z,0
2017-08-26T04:44:41.441Z,0
2017-08-26T04:45:21.945Z,0
2017-08-26T04:46:02.451Z,0
2017-08-26T04:46:42.845Z,0
2017-08-26T04:47:23.226Z,0
2017-08-26T04:48:03.668Z,0
2017-08-26T04:48:44.084Z,0
2017-08-26T04:49:24.470Z,0
2017-08-26T04:50:05.013Z,0
2017-08-26T04:50:46.155Z,0
2017-08-26T04:51:26.903Z,0
2017-08-26T04:52:07.782Z,0
2017-08-26T04:52:48.007Z,0
2017-08-26T04:53:28.300Z,0
2017-08-26T04:54:08.753Z,0
2017-08-26T04:54:49.160Z,0
2017-08-26T04:55:29.513Z,0
2017-08-26T04:56:09.856Z,0
2017-08-26T04:56:50.221Z,0
2017-08-26T04:57:30.683Z,0
2017-08-26T04:58:11.057Z,0
2017-08-26T04:58:51.459Z,5
2017-08-26T04:59:31.810Z,5
2017-08-26T05:00:12.241Z,5
2017-08-26T05:00:52.697Z,5
2017-08-26T05:01:33.119Z,5
2017-08-26T05:02:13.515Z,5
2017-08-26T05:02:53.974Z,5
2017-08-26T05:03:34.349Z,5
2017-08-26T05:04:14.723Z,5
2017-08-26T05:04:55.197Z,5
2017-08-26T05:05:35.702Z,5
2017-08-26T05:06:16.105Z,5
2017-08-26T05:06:56.481Z,10
2017-08-26T05:07:36.857Z,10
2017-08-26T05:08:17.341Z,10
2017-08-26T05:08:58.268Z,10
2017-08-26T05:09:38.863Z,10
2017-08-26T05:10:19.172Z,10
2017-08-26T05:10:59.615Z,10
2017-08-26T05:11:40.360Z,10
2017-08-26T05:12:20.644Z,10
2017-08-26T05:13:01.089Z,10
2017-08-26T05:13:41.498Z,10
2017-08-26T05:14:21.839Z,10
2017-08-26T05:15:02.243Z,10
2017-08-26T05:15:42.685Z,15
2017-08-26T05:18:22.041Z,15
2017-08-26T05:19:02.489Z,15
2017-08-26T05:19:42.906Z,15
2017-08-26T05:20:23.649Z,15
2017-08-26T05:21:04.298Z,15
2017-08-26T05:21:44.951Z,15
2017-08-26T05:22:25.380Z,20
2017-08-26T05:23:05.853Z,20
2017-08-26T05:23:46.294Z,20
2017-08-26T05:24:26.809Z,20
2017-08-26T05:25:07.545Z,20
2017-08-26T05:25:47.847Z,20
2017-08-26T05:26:28.084Z,25
2017-08-26T05:27:08.850Z,25
2017-08-26T05:27:49.271Z,25
2017-08-26T05:28:29.444Z,25
2017-08-26T05:29:10.199Z,25
2017-08-26T05:29:50.551Z,30
2017-08-26T05:30:30.981Z,25
2017-08-26T05:31:11.374Z,25
2017-08-26T05:31:51.869Z,25
2017-08-26T05:32:32.250Z,25
2017-08-26T05:33:12.786Z,25
2017-08-26T05:33:53.161Z,25
2017-08-26T05:34:33.570Z,25
2017-08-26T05:35:13.947Z,30
2017-08-26T05:35:54.436Z,30
2017-08-26T05:36:34.937Z,30
2017-08-26T05:37:15.299Z,30
2017-08-26T05:37:55.737Z,30
2017-08-26T05:38:36.303Z,30
2017-08-26T05:39:16.621Z,35
2017-08-26T05:39:57.197Z,35
2017-08-26T05:40:37.585Z,35
2017-08-26T05:41:18.063Z,40
2017-08-26T05:41:58.611Z,45
2017-08-26T05:42:39.033Z,45
2017-08-26T05:43:19.773Z,45
2017-08-26T05:44:00.273Z,55
2017-08-26T05:44:40.465Z,70
2017-08-26T05:45:20.923Z,75
2017-08-26T05:46:01.347Z,75
2017-08-26T05:46:42.017Z,80
2017-08-26T05:47:22.210Z,70
2017-08-26T05:48:02.659Z,70
2017-08-26T05:48:43.017Z,80
2017-08-26T05:49:23.665Z,80
2017-08-26T05:50:04.049Z,80
2017-08-26T05:50:44.380Z,85
2017-08-26T05:51:24.787Z,90
2017-08-26T05:52:05.139Z,85
2017-08-26T05:52:45.625Z,80
2017-08-26T05:53:26.018Z,85
2017-08-26T05:54:06.577Z,90
2017-08-26T05:54:47.065Z,95
2017-08-26T05:55:27.379Z,100
2017-08-26T05:56:07.721Z,100
2017-08-26T05:56:48.310Z,100
2017-08-26T05:57:28.662Z,105
2017-08-26T05:58:09.071Z,100
2017-08-26T05:58:49.629Z,105
2017-08-26T05:59:29.962Z,105
2017-08-26T06:00:10.393Z,105
2017-08-26T06:00:50.861Z,105
2017-08-26T06:01:31.307Z,100
2017-08-26T06:02:11.856Z,105
2017-08-26T06:02:52.306Z,105
2017-08-26T06:03:32.686Z,110
2017-08-26T06:04:13.181Z,115
2017-08-26T06:04:53.613Z,115
2017-08-26T06:05:34.072Z,120
2017-08-26T06:06:14.483Z,120
2017-08-26T06:06:54.934Z,120
2017-08-26T06:07:35.338Z,125
2017-08-26T06:08:15.777Z,125
2017-08-26T06:08:56.197Z,130
2017-08-26T06:09:36.718Z,130
2017-08-26T06:10:17.009Z,130
2017-08-26T06:12:55.370Z,135
2017-08-26T06:13:35.701Z,135
2017-08-26T06:14:16.097Z,135
2017-08-26T06:14:56.504Z,140
2017-08-26T06:15:36.941Z,140
2017-08-26T06:16:17.339Z,135
2017-08-26T06:16:57.803Z,135
2017-08-26T06:17:38.188Z,140
2017-08-26T06:18:18.633Z,145
2017-08-26T06:18:59.080Z,150
2017-08-26T06:19:39.523Z,145
2017-08-26T06:20:19.893Z,155
2017-08-26T06:21:00.334Z,160
2017-08-26T06:21:40.691Z,150
2017-08-26T06:22:21.134Z,165
2017-08-26T06:23:01.470Z,170
2017-08-26T06:23:42.107Z,170
2017-08-26T06:24:22.537Z,175
2017-08-26T06:25:02.945Z,180
2017-08-26T06:25:43.381Z,190
2017-08-26T06:26:23.721Z,195
2017-08-26T06:27:04.978Z,200
2017-08-26T06:27:45.313Z,205
2017-08-26T06:34:40.639Z,195
2017-08-26T06:35:21.033Z,195
2017-08-26T06:36:01.438Z,195
2017-08-26T06:36:41.922Z,200
2017-08-26T06:37:22.341Z,195
2017-08-26T06:38:02.785Z,190
2017-08-26T06:38:43.205Z,185
2017-08-26T06:39:23.645Z,185
2017-08-26T06:40:04.125Z,170
2017-08-26T06:40:44.559Z,165
2017-08-26T06:41:25.009Z,145
2017-08-26T06:42:05.436Z,165
2017-08-26T06:42:45.887Z,180
2017-08-26T06:43:26.309Z,160
2017-08-26T06:44:06.724Z,115
2017-08-26T06:46:44.584Z,185
2017-08-26T06:49:17.314Z,155
2017-08-26T06:49:57.750Z,155
2017-08-26T06:50:38.131Z,160
2017-08-26T06:51:18.583Z,170
2017-08-26T06:51:58.987Z,195
2017-08-26T06:52:39.408Z,200
2017-08-26T06:53:19.789Z,205
2017-08-26T06:54:00.183Z,215
2017-08-26T06:54:40.635Z,225
2017-08-26T06:55:21.081Z,215
2017-08-26T06:56:01.452Z,220
2017-08-26T06:56:41.889Z,215
2017-08-26T06:57:22.291Z,215
2017-08-26T06:58:02.713Z,215
2017-08-26T06:58:43.095Z,215
2017-08-26T06:59:23.504Z,200
2017-08-26T07:01:56.276Z,120
2017-08-26T07:02:36.695Z,120
2017-08-26T07:03:17.061Z,115
2017-08-26T07:03:57.514Z,105
2017-08-26T07:04:37.922Z,95
2017-08-26T07:05:18.355Z,95
2017-08-26T07:05:58.766Z,105
2017-08-26T07:06:39.167Z,130
2017-08-26T07:07:19.599Z,140
2017-08-26T07:09:38.366Z,150
2017-08-26T07:10:18.790Z,135
2017-08-26T07:10:59.187Z,135
2017-08-26T07:13:32.121Z,160
2017-08-26T07:14:12.481Z,165
2017-08-26T07:14:52.941Z,170
2017-08-26T07:15:33.332Z,180
2017-08-26T07:16:13.804Z,185
2017-08-26T07:16:54.361Z,180
2017-08-26T07:17:34.846Z,180
2017-08-26T07:18:15.273Z,170
2017-08-26T07:18:55.721Z,170
2017-08-26T07:19:36.109Z,170
2017-08-26T07:20:16.568Z,175
2017-08-26T07:20:56.972Z,175
2017-08-26T07:21:37.418Z,180
2017-08-26T07:22:17.954Z,180
2017-08-26T07:22:58.369Z,180
2017-08-26T07:23:38.783Z,180
2017-08-26T07:24:19.198Z,185
2017-08-26T07:26:57.134Z,190
2017-08-26T07:27:37.562Z,195
2017-08-26T07:28:18.000Z,190
2017-08-26T07:28:58.448Z,195
2017-08-26T07:29:38.808Z,190
2017-08-26T07:30:19.242Z,190
2017-08-26T07:30:59.655Z,180
2017-08-26T07:31:40.163Z,180
2017-08-26T07:32:20.605Z,185
2017-08-26T07:33:01.041Z,175
2017-08-26T07:33:41.407Z,185
2017-08-26T07:34:21.871Z,190
2017-08-26T07:35:02.286Z,190
2017-08-26T07:35:42.694Z,190
2017-08-26T07:36:23.139Z,190
2017-08-26T07:37:03.569Z,185
2017-08-26T07:37:43.999Z,180
2017-08-26T07:38:24.461Z,175
2017-08-26T07:39:04.858Z,180
2017-08-26T07:39:45.286Z,175
2017-08-26T07:40:25.709Z,170
2017-08-26T07:41:06.221Z,170
2017-08-26T07:41:46.683Z,155
2017-08-26T07:53:06.913Z,165
2017-08-26T07:53:47.138Z,170
2017-08-26T07:54:27.722Z,165
2017-08-26T07:55:09.637Z,165
2017-08-26T07:55:49.808Z,165
2017-08-26T07:56:30.595Z,165
2017-08-26T07:57:11.903Z,165
2017-08-26T07:57:52.247Z,165
2017-08-26T07:58:32.847Z,165
2017-08-26T07:59:13.735Z,165
2017-08-26T07:59:54.342Z,160
2017-08-26T08:00:34.697Z,160
2017-08-26T08:01:15.502Z,165
2017-08-26T08:01:56.461Z,165
2017-08-26T08:02:36.868Z,165
2017-08-26T08:03:17.623Z,165
2017-08-26T08:03:58.374Z,165
2017-08-26T08:04:38.956Z,160
2017-08-26T08:05:20.661Z,160
2017-08-26T08:06:02.718Z,160
2017-08-26T08:06:43.382Z,160
2017-08-26T08:07:23.821Z,160
2017-08-26T08:08:06.692Z,160
2017-08-26T08:08:46.466Z,165
2017-08-26T08:09:27.163Z,160
2017-08-26T08:10:08.536Z,160
2017-08-26T08:10:49.108Z,160
2017-08-26T08:11:31.710Z,160
2017-08-26T08:12:14.092Z,160
2017-08-26T08:12:55.965Z,160
2017-08-26T08:13:36.664Z,160
2017-08-26T08:14:17.224Z,160
2017-08-26T08:14:57.835Z,155
2017-08-26T08:15:38.716Z,145
2017-08-26T08:16:19.805Z,135
2017-08-26T08:17:00.410Z,125
2017-08-26T08:17:40.996Z,120
2017-08-26T08:18:25.687Z,115
2017-08-26T08:19:06.502Z,110
2017-08-26T08:19:47.781Z,100
2017-08-26T08:20:32.308Z,95
2017-08-26T08:23:35.373Z,95
2017-08-26T08:24:15.932Z,100
2017-08-26T08:24:56.508Z,100
2017-08-26T08:25:37.808Z,105
2017-08-26T08:39:01.042Z,100
2017-08-26T08:39:49.448Z,105
2017-08-26T08:40:38.201Z,105
2017-08-26T08:41:27.368Z,105
2017-08-26T08:42:15.376Z,105
2017-08-26T08:46:01.469Z,95
2017-08-26T08:46:50.412Z,90
2017-08-26T08:47:39.208Z,90
2017-08-26T08:48:27.707Z,90
2017-08-26T08:49:16.591Z,90
2017-08-26T09:01:00.603Z,85
2017-08-26T09:01:49.826Z,85
2017-08-26T09:06:52.889Z,95
2017-08-26T09:11:06.828Z,105
2017-08-26T09:11:55.369Z,100
2017-08-26T09:17:04.386Z,95
2017-08-26T09:17:53.341Z,95
2017-08-26T09:18:44.956Z,100
2017-08-26T09:19:33.849Z,100
2017-08-26T09:20:25.577Z,100
2017-08-26T09:28:51.117Z,130
2017-08-26T09:38:08.243Z,125
2017-08-26T09:38:49.658Z,125
2017-08-26T09:39:30.144Z,115
2017-08-26T09:40:12.450Z,120
2017-08-26T09:40:53.254Z,110
2017-08-26T09:41:33.731Z,125
2017-08-26T09:42:14.088Z,125
2017-08-26T09:42:54.513Z,120
2017-08-26T09:43:34.976Z,125
2017-08-26T09:44:15.457Z,115
2017-08-26T09:44:55.882Z,115
2017-08-26T09:45:36.456Z,105
2017-08-26T09:46:16.948Z,105
2017-08-26T09:46:57.431Z,110
2017-08-26T09:47:37.794Z,110
2017-08-26T09:48:18.343Z,120
2017-08-26T09:48:59.187Z,110
2017-08-26T09:49:39.755Z,110
2017-08-26T09:52:11.966Z,110
2017-08-26T09:53:01.697Z,95
2017-08-26T09:53:49.396Z,95
2017-08-26T09:54:39.926Z,105
2017-08-26T09:55:31.270Z,115
2017-08-26T10:03:05.474Z,95
2017-08-26T10:04:00.730Z,110
2017-08-26T10:04:55.833Z,110
2017-08-26T10:05:45.273Z,110
2017-08-26T10:06:33.976Z,110
2017-08-26T10:07:22.956Z,110
2017-08-26T10:14:55.446Z,110
2017-08-26T10:15:36.193Z,115
2017-08-26T10:16:16.693Z,115
2017-08-26T10:22:54.010Z,100
2017-08-26T10:23:34.182Z,105
2017-08-26T10:24:14.737Z,105
2017-08-26T10:24:55.795Z,105
2017-08-26T10:25:36.090Z,105
2017-08-26T10:26:16.705Z,100
2017-08-26T10:26:56.981Z,110
2017-08-26T10:27:37.555Z,105
2017-08-26T10:28:18.075Z,105
2017-08-26T10:28:58.504Z,105
2017-08-26T10:29:38.961Z,105
2017-08-26T10:30:19.341Z,105
2017-08-26T10:30:59.854Z,110
2017-08-26T10:31:40.234Z,110
2017-08-26T10:32:20.801Z,110
2017-08-26T10:33:01.336Z,105
2017-08-26T10:33:43.932Z,105
2017-08-26T10:34:24.742Z,95
2017-08-26T10:35:05.173Z,105
2017-08-26T10:35:48.474Z,115
2017-08-26T10:36:28.981Z,115
2017-08-26T10:37:10.205Z,110
2017-08-26T10:37:51.639Z,105
2017-08-26T10:38:32.372Z,110
2017-08-26T10:39:13.469Z,110
2017-08-26T10:39:53.607Z,110
2017-08-26T10:40:34.196Z,95
2017-08-26T10:41:14.879Z,90
2017-08-26T10:41:55.376Z,90
2017-08-26T10:42:35.774Z,85
2017-08-26T10:43:16.614Z,80
2017-08-26T10:43:56.805Z,80
2017-08-26T10:44:37.294Z,75
2017-08-26T10:45:18.725Z,80
2017-08-26T10:45:58.216Z,80
2017-08-26T10:46:38.757Z,85
2017-08-26T10:47:19.091Z,75
2017-08-26T10:47:59.499Z,75
2017-08-26T10:48:40.140Z,75
2017-08-26T10:49:20.607Z,90
2017-08-26T10:50:01.063Z,80
2017-08-26T10:50:41.488Z,80
2017-08-26T10:51:21.990Z,100
2017-08-26T10:52:02.447Z,95
2017-08-26T10:52:42.839Z,100
2017-08-26T10:53:23.531Z,95
2017-08-26T10:54:04.210Z,95
2017-08-26T10:54:44.894Z,100
2017-08-26T10:55:25.494Z,90
2017-08-26T10:56:05.854Z,90
2017-08-26T10:56:46.384Z,90
2017-08-26T10:57:27.040Z,90
2017-08-26T11:01:39.812Z,85
2017-08-26T11:02:20.288Z,75
2017-08-26T11:03:01.019Z,75
2017-08-26T11:03:41.437Z,85
2017-08-26T11:04:22.206Z,70
2017-08-26T11:05:03.258Z,70
2017-08-26T11:05:43.485Z,85
2017-08-26T11:06:24.363Z,90
2017-08-26T11:07:04.747Z,90
2017-08-26T11:07:45.503Z,90
2017-08-26T11:08:25.786Z,95
2017-08-26T11:09:06.233Z,95
2017-08-26T11:09:46.756Z,95
2017-08-26T11:10:27.151Z,100
2017-08-26T11:11:07.650Z,105
2017-08-26T11:11:48.700Z,100
2017-08-26T11:12:29.005Z,100
2017-08-26T11:13:09.566Z,100
2017-08-26T11:13:50.097Z,100
2017-08-26T11:14:30.480Z,95
2017-08-26T11:15:10.891Z,95
2017-08-26T11:15:51.425Z,95
2017-08-26T11:16:31.848Z,95
2017-08-26T11:17:12.285Z,95
2017-08-26T11:17:52.751Z,95
2017-08-26T11:18:33.436Z,95
2017-08-26T11:19:14.016Z,95
2017-08-26T11:19:54.462Z,100
2017-08-26T11:20:34.863Z,100
2017-08-26T11:21:15.397Z,100
2017-08-26T11:28:12.571Z,90
2017-08-26T11:34:29.259Z,95
2017-08-26T11:35:09.288Z,95
2017-08-26T11:35:49.970Z,90
2017-08-26T11:36:30.571Z,90
2017-08-26T11:37:10.960Z,90
2017-08-26T11:37:51.321Z,80
2017-08-26T11:38:31.915Z,90
2017-08-26T11:39:12.401Z,100
2017-08-26T11:39:52.904Z,100
2017-08-26T11:40:33.445Z,95
2017-08-26T11:41:13.871Z,95
2017-08-26T11:41:54.329Z,85
2017-08-26T11:42:34.862Z,80
2017-08-26T11:43:15.269Z,80
2017-08-26T11:43:56.345Z,75
2017-08-26T11:44:36.818Z,80
2017-08-26T11:45:17.431Z,80
2017-08-26T11:45:58.116Z,70
2017-08-26T11:46:38.599Z,65
2017-08-26T11:47:19.945Z,65
2017-08-26T11:48:00.346Z,65
2017-08-26T11:48:41.006Z,75
2017-08-26T11:49:21.340Z,70
2017-08-26T11:50:01.742Z,75
2017-08-26T11:50:42.227Z,70
2017-08-26T11:51:22.660Z,90
2017-08-26T11:52:03.116Z,90
2017-08-26T11:52:43.530Z,90
2017-08-26T11:53:23.975Z,95
2017-08-26T11:54:04.643Z,90
2017-08-26T11:54:44.979Z,90
2017-08-26T11:55:25.385Z,90
2017-08-26T11:56:05.876Z,90
2017-08-26T11:56:46.300Z,90
2017-08-26T11:57:26.859Z,90
2017-08-26T11:58:07.432Z,90
2017-08-26T11:58:47.994Z,90
2017-08-26T11:59:28.452Z,90
2017-08-26T12:01:47.918Z,90
2017-08-26T12:02:28.362Z,90
2017-08-26T12:03:08.796Z,90
2017-08-26T12:03:49.233Z,90
2017-08-26T12:04:29.820Z,90
2017-08-26T12:05:10.222Z,90
2017-08-26T12:05:50.643Z,90
2017-08-26T12:06:31.278Z,90